Time,TemperatureF,DewpointF,PressureIn,WindDirection,WindDirectionDegrees,WindSpeedMPH,WindSpeedGustMPH,Humidity,HourlyPrecipIn,Conditions,Clouds,dailyrainin,SoftwareType,DateUTC
2013-04-20 00:14:00,55.9,43.9,29.98,SE,135,5.3,-999.0,64,-99.99,,,0.00,Acu-Link.com,2013-04-20 07:14:00,
2013-04-20 00:29:00,55.4,43.4,29.98,West,270,5.8,-999.0,64,-99.99,,,0.00,Acu-Link.com,2013-04-20 07:29:00,
2013-04-20 00:45:00,54.7,43.6,29.98,NNW,337,5.3,-999.0,66,-99.99,,,0.00,Acu-Link.com,2013-04-20 07:45:00,
2013-04-20 01:00:00,54.3,43.2,29.98,West,270,8.9,-999.0,66,-99.99,,,0.00,Acu-Link.com,2013-04-20 08:00:00,
2013-04-20 01:15:00,54.3,43.2,29.98,NE,45,7.3,-999.0,66,-99.99,,,0.00,Acu-Link.com,2013-04-20 08:15:00,
2013-04-20 01:30:00,54.5,43.0,29.99,West,270,8.3,-999.0,65,-99.99,,,0.00,Acu-Link.com,2013-04-20 08:30:00,
2013-04-20 01:46:00,54.3,42.8,29.98,West,270,6.3,-999.0,65,-99.99,,,0.00,Acu-Link.com,2013-04-20 08:46:00,
2013-04-20 02:01:00,53.8,42.3,29.99,SSE,157,6.8,-999.0,65,-99.99,,,0.00,Acu-Link.com,2013-04-20 09:01:00,
2013-04-20 02:16:00,53.8,42.7,29.99,West,270,8.9,-999.0,66,-99.99,,,0.00,Acu-Link.com,2013-04-20 09:16:00,
2013-04-20 02:31:00,53.6,42.5,29.99,WNW,292,7.3,-999.0,66,-99.99,,,0.00,Acu-Link.com,2013-04-20 09:31:00,
2013-04-20 02:46:00,53.4,41.9,29.99,West,270,3.7,-999.0,65,-99.99,,,0.00,Acu-Link.com,2013-04-20 09:46:00,
2013-04-20 03:02:00,53.2,41.7,29.98,WSW,247,10.9,-999.0,65,-99.99,,,0.00,Acu-Link.com,2013-04-20 10:02:00,
2013-04-20 03:17:00,53.2,41.7,29.99,West,270,9.4,-999.0,65,-99.99,,,0.00,Acu-Link.com,2013-04-20 10:17:00,
2013-04-20 03:32:00,52.7,41.3,29.99,West,270,6.8,-999.0,65,-99.99,,,0.00,Acu-Link.com,2013-04-20 10:32:00,
2013-04-20 03:47:00,52.5,41.1,29.99,West,270,4.7,-999.0,65,-99.99,,,0.00,Acu-Link.com,2013-04-20 10:47:00,
2013-04-20 04:03:00,52.2,41.2,29.99,WSW,247,9.4,-999.0,66,-99.99,,,0.00,Acu-Link.com,2013-04-20 11:03:00,
2013-04-20 04:18:00,51.8,40.8,29.99,ESE,112,8.9,-999.0,66,-99.99,,,0.00,Acu-Link.com,2013-04-20 11:18:00,
2013-04-20 04:33:00,51.4,40.4,29.99,West,270,6.8,-999.0,66,-99.99,,,0.00,Acu-Link.com,2013-04-20 11:33:00,
2013-04-20 04:48:00,50.9,40.3,29.99,WSW,247,6.8,-999.0,67,-99.99,,,0.00,Acu-Link.com,2013-04-20 11:48:00,
2013-04-20 05:03:00,50.2,40.1,29.98,West,270,8.9,-999.0,68,-99.99,,,0.00,Acu-Link.com,2013-04-20 12:03:00,
2013-04-20 05:19:00,50.2,40.1,29.98,West,270,8.3,-999.0,68,-99.99,,,0.00,Acu-Link.com,2013-04-20 12:19:00,
2013-04-20 05:34:00,51.1,40.1,29.99,West,270,6.8,-999.0,66,-99.99,,,0.00,Acu-Link.com,2013-04-20 12:34:00,
2013-04-20 05:49:00,50.7,39.8,29.99,West,270,4.2,-999.0,66,-99.99,,,0.00,Acu-Link.com,2013-04-20 12:49:00,
2013-04-20 06:04:00,50.0,39.5,29.99,SW,225,3.2,-999.0,67,-99.99,,,0.00,Acu-Link.com,2013-04-20 13:04:00,
2013-04-20 06:19:00,49.1,39.4,29.99,SW,225,5.8,-999.0,69,-99.99,,,0.00,Acu-Link.com,2013-04-20 13:19:00,
2013-04-20 06:35:00,49.1,39.4,29.99,West,270,6.8,-999.0,69,-99.99,,,0.00,Acu-Link.com,2013-04-20 13:35:00,
2013-04-20 06:50:00,49.5,39.4,29.99,West,270,5.3,-999.0,68,-99.99,,,0.00,Acu-Link.com,2013-04-20 13:50:00,
2013-04-20 07:05:00,50.7,39.0,30.00,SSE,157,2.7,-999.0,64,-99.99,,,0.00,Acu-Link.com,2013-04-20 14:05:00,
2013-04-20 07:20:00,55.4,36.0,29.99,ENE,67,2.7,-999.0,48,-99.99,,,0.00,Acu-Link.com,2013-04-20 14:20:00,
2013-04-20 07:35:00,60.4,36.6,29.99,WSW,247,2.7,-999.0,41,-99.99,,,0.00,Acu-Link.com,2013-04-20 14:35:00,
2013-04-20 07:51:00,63.7,38.9,29.99,SSE,157,0.0,-999.0,40,-99.99,,,0.00,Acu-Link.com,2013-04-20 14:51:00,
2013-04-20 08:06:00,61.2,39.1,29.99,SSW,202,1.1,-999.0,44,-99.99,,,0.00,Acu-Link.com,2013-04-20 15:06:00,
2013-04-20 08:21:00,60.1,38.7,29.99,West,270,6.3,-999.0,45,-99.99,,,0.00,Acu-Link.com,2013-04-20 15:21:00,
2013-04-20 08:36:00,65.7,39.4,29.99,WSW,247,0.0,-999.0,38,-99.99,,,0.00,Acu-Link.com,2013-04-20 15:36:00,
2013-04-20 08:52:00,68.9,38.6,29.98,ENE,67,2.7,-999.0,33,-99.99,,,0.00,Acu-Link.com,2013-04-20 15:52:00,
2013-04-20 09:07:00,69.1,41.0,29.98,South,180,1.7,-999.0,36,-99.99,,,0.00,Acu-Link.com,2013-04-20 16:07:00,
2013-04-20 09:22:00,73.4,38.3,29.97,SSE,157,4.2,-999.0,28,-99.99,,,0.00,Acu-Link.com,2013-04-20 16:22:00,
2013-04-20 09:38:00,73.9,36.8,29.96,West,270,2.2,-999.0,26,-99.99,,,0.00,Acu-Link.com,2013-04-20 16:38:00,
2013-04-20 09:53:00,76.6,39.1,29.97,SSE,157,1.7,-999.0,26,-99.99,,,0.00,Acu-Link.com,2013-04-20 16:53:00,
2013-04-20 10:08:00,77.4,39.8,29.97,SE,135,1.7,-999.0,26,-99.99,,,0.00,Acu-Link.com,2013-04-20 17:08:00,
2013-04-20 10:23:00,78.3,37.4,29.97,NE,45,4.7,-999.0,23,-99.99,,,0.00,Acu-Link.com,2013-04-20 17:23:00,
2013-04-20 10:39:00,77.7,38.0,29.96,SSE,157,4.2,-999.0,24,-99.99,,,0.00,Acu-Link.com,2013-04-20 17:39:00,
2013-04-20 10:54:00,79.9,37.6,29.96,SW,225,1.7,-999.0,22,-99.99,,,0.00,Acu-Link.com,2013-04-20 17:54:00,
2013-04-20 11:09:00,81.3,38.8,29.97,NE,45,3.7,-999.0,22,-99.99,,,0.00,Acu-Link.com,2013-04-20 18:09:00,
2013-04-20 11:24:00,82.8,38.9,29.96,South,180,3.7,-999.0,21,-99.99,,,0.00,Acu-Link.com,2013-04-20 18:24:00,
2013-04-20 11:39:00,84.6,41.5,29.95,West,270,4.7,-999.0,22,-99.99,,,0.00,Acu-Link.com,2013-04-20 18:39:00,
2013-04-20 11:55:00,86.2,39.1,29.95,ESE,112,1.1,-999.0,19,-99.99,,,0.00,Acu-Link.com,2013-04-20 18:55:00,
2013-04-20 12:10:00,87.8,39.0,29.94,WSW,247,3.2,-999.0,18,-99.99,,,0.00,Acu-Link.com,2013-04-20 19:10:00,
2013-04-20 12:25:00,88.5,36.6,29.94,WNW,292,2.2,-999.0,16,-99.99,,,0.00,Acu-Link.com,2013-04-20 19:25:00,
2013-04-20 12:40:00,89.6,35.8,29.93,NNE,22,2.2,-999.0,15,-99.99,,,0.00,Acu-Link.com,2013-04-20 19:40:00,
2013-04-20 12:56:00,90.1,34.5,29.93,NW,315,1.7,-999.0,14,-99.99,,,0.00,Acu-Link.com,2013-04-20 19:56:00,
2013-04-20 13:11:00,87.8,34.4,29.92,WSW,247,1.1,-999.0,15,-99.99,,,0.00,Acu-Link.com,2013-04-20 20:11:00,
2013-04-20 13:26:00,88.0,32.8,29.92,NE,45,4.2,-999.0,14,-99.99,,,0.00,Acu-Link.com,2013-04-20 20:26:00,
2013-04-20 13:41:00,87.8,36.0,29.91,ESE,112,3.2,-999.0,16,-99.99,,,0.00,Acu-Link.com,2013-04-20 20:41:00,
2013-04-20 13:56:00,90.1,37.8,29.90,SSE,157,0.0,-999.0,16,-99.99,,,0.00,Acu-Link.com,2013-04-20 20:56:00,
2013-04-20 14:12:00,91.9,37.6,29.90,West,270,3.7,-999.0,15,-99.99,,,0.00,Acu-Link.com,2013-04-20 21:12:00,
2013-04-20 14:27:00,91.4,35.5,29.90,NNW,337,2.2,-999.0,14,-99.99,,,0.00,Acu-Link.com,2013-04-20 21:27:00,
2013-04-20 14:42:00,91.9,35.9,29.89,SE,135,0.0,-999.0,14,-99.99,,,0.00,Acu-Link.com,2013-04-20 21:42:00,
2013-04-20 14:57:00,88.3,43.4,29.89,NW,315,11.9,-999.0,21,-99.99,,,0.00,Acu-Link.com,2013-04-20 21:57:00,
2013-04-20 15:12:00,78.1,46.6,29.88,SSW,202,11.9,-999.0,33,-99.99,,,0.00,Acu-Link.com,2013-04-20 22:12:00,
2013-04-20 15:28:00,77.0,46.5,29.88,SW,225,12.5,-999.0,34,-99.99,,,0.00,Acu-Link.com,2013-04-20 22:28:00,
2013-04-20 15:43:00,77.7,44.6,29.87,South,180,9.4,-999.0,31,-99.99,,,0.00,Acu-Link.com,2013-04-20 22:43:00,
2013-04-20 15:58:00,75.9,43.9,29.87,SSE,157,13.5,-999.0,32,-99.99,,,0.00,Acu-Link.com,2013-04-20 22:58:00,
2013-04-20 16:13:00,76.3,43.4,29.86,SW,225,14.0,-999.0,31,-99.99,,,0.00,Acu-Link.com,2013-04-20 23:13:00,
2013-04-20 16:29:00,77.2,45.0,29.86,West,270,9.9,-999.0,32,-99.99,,,0.00,Acu-Link.com,2013-04-20 23:29:00,
2013-04-20 16:44:00,76.8,44.7,29.86,SSW,202,12.5,-999.0,32,-99.99,,,0.00,Acu-Link.com,2013-04-20 23:44:00,
2013-04-20 16:59:00,75.0,43.9,29.85,ESE,112,14.5,-999.0,33,-99.99,,,0.00,Acu-Link.com,2013-04-20 23:59:00,
2013-04-20 17:14:00,74.7,43.7,29.85,SW,225,9.9,-999.0,33,-99.99,,,0.00,Acu-Link.com,2013-04-21 00:14:00,
2013-04-20 17:29:00,75.0,43.1,29.85,West,270,14.0,-999.0,32,-99.99,,,0.00,Acu-Link.com,2013-04-21 00:29:00,
2013-04-20 17:45:00,75.6,43.6,29.84,South,180,4.7,-999.0,32,-99.99,,,0.00,Acu-Link.com,2013-04-21 00:45:00,
2013-04-20 18:00:00,73.8,43.7,29.84,WSW,247,8.3,-999.0,34,-99.99,,,0.00,Acu-Link.com,2013-04-21 01:00:00,
2013-04-20 18:15:00,73.8,43.7,29.85,WSW,247,7.3,-999.0,34,-99.99,,,0.00,Acu-Link.com,2013-04-21 01:15:00,
2013-04-20 18:31:00,74.3,42.5,29.85,SSE,157,5.8,-999.0,32,-99.99,,,0.00,Acu-Link.com,2013-04-21 01:31:00,
2013-04-20 18:46:00,73.0,42.2,29.84,WNW,292,11.4,-999.0,33,-99.99,,,0.00,Acu-Link.com,2013-04-21 01:46:00,
2013-04-20 19:01:00,72.5,41.7,29.84,West,270,8.9,-999.0,33,-99.99,,,0.00,Acu-Link.com,2013-04-21 02:01:00,
2013-04-20 19:16:00,71.2,42.1,29.85,West,270,6.8,-999.0,35,-99.99,,,0.00,Acu-Link.com,2013-04-21 02:16:00,
2013-04-20 19:32:00,70.0,41.8,29.85,WSW,247,9.4,-999.0,36,-99.99,,,0.00,Acu-Link.com,2013-04-21 02:32:00,
2013-04-20 19:47:00,69.1,41.0,29.86,SSW,202,5.8,-999.0,36,-99.99,,,0.00,Acu-Link.com,2013-04-21 02:47:00,
2013-04-20 20:03:00,68.2,40.9,29.86,West,270,7.3,-999.0,37,-99.99,,,0.00,Acu-Link.com,2013-04-21 03:03:00,
2013-04-20 20:18:00,67.5,41.0,29.86,WSW,247,5.8,-999.0,38,-99.99,,,0.00,Acu-Link.com,2013-04-21 03:18:00,
2013-04-20 20:33:00,66.9,40.5,29.86,WSW,247,6.3,-999.0,38,-99.99,,,0.00,Acu-Link.com,2013-04-21 03:33:00,
2013-04-20 20:48:00,66.7,41.0,29.87,West,270,5.8,-999.0,39,-99.99,,,0.00,Acu-Link.com,2013-04-21 03:48:00,
2013-04-20 21:04:00,66.2,41.2,29.88,West,270,5.3,-999.0,40,-99.99,,,0.00,Acu-Link.com,2013-04-21 04:04:00,
2013-04-20 21:19:00,66.2,41.8,29.88,West,270,8.3,-999.0,41,-99.99,,,0.00,Acu-Link.com,2013-04-21 04:19:00,
2013-04-20 21:34:00,65.1,42.0,29.89,West,270,5.8,-999.0,43,-99.99,,,0.00,Acu-Link.com,2013-04-21 04:34:00,
2013-04-20 21:49:00,64.2,41.8,29.89,West,270,6.8,-999.0,44,-99.99,,,0.00,Acu-Link.com,2013-04-21 04:49:00,
2013-04-20 22:04:00,63.1,42.0,29.90,West,270,3.2,-999.0,46,-99.99,,,0.00,Acu-Link.com,2013-04-21 05:04:00,
2013-04-20 22:20:00,62.2,42.8,29.89,West,270,3.7,-999.0,49,-99.99,,,0.00,Acu-Link.com,2013-04-21 05:20:00,
2013-04-20 22:35:00,61.3,43.0,29.89,SW,225,1.7,-999.0,51,-99.99,,,0.00,Acu-Link.com,2013-04-21 05:35:00,
2013-04-20 22:50:00,60.4,42.2,29.89,WNW,292,2.7,-999.0,51,-99.99,,,0.00,Acu-Link.com,2013-04-21 05:50:00,
2013-04-20 23:05:00,60.3,42.6,29.88,West,270,4.2,-999.0,52,-99.99,,,0.00,Acu-Link.com,2013-04-21 06:05:00,
2013-04-20 23:20:00,59.7,42.0,29.89,WNW,292,2.2,-999.0,52,-99.99,,,0.00,Acu-Link.com,2013-04-21 06:20:00,
2013-04-20 23:36:00,59.2,42.6,29.89,NE,45,4.7,-999.0,54,-99.99,,,0.00,Acu-Link.com,2013-04-21 06:36:00,
2013-04-20 23:51:00,57.9,42.3,29.89,WNW,292,4.2,-999.0,56,-99.99,,,0.00,Acu-Link.com,2013-04-21 06:51:00,